Terminal Aerodrome Forecast
Issued by NWS

Current Version | Previous Version | Graphics & Text | Print | Product List | Glossary On
Versions: 1 2 3 4 5 6 7 8 9 10 11 12 13 14 15 16 17 18 19 20 21 22 23 24 25 26 27 28 29 30 31 32 33 34 35 36 37 38 39 40
410
FTUS41 KRNK 171513 AAA
TAFLWB
TAF AMD
KLWB 171513Z 1715/1812 15004KT P6SM BKN019 OVC035
     FM171600 12005KT P6SM VCSH OVC020
     FM171800 13004KT 4SM -PLSN BR OVC020
      TEMPO 1718/1722 OVC008
     FM172200 13004KT 2SM -SN BR OVC005
     FM180000 VRB03KT 4SM -PL BR OVC004
     FM180500 28008KT P6SM -SHSN OVC012=

USA.gov is the U.S. government's official web portal to all federal, state and local government web resources and services.